sensor_id;sensor_type;location;lat;lon;timestamp;P1;durP1;ratioP1;P2;durP2;ratioP2
19965;SDS011;10144;50.874;4.762;2023-02-19T00:04:03;14.77;;;6.30;;
19965;SDS011;10144;50.874;4.762;2023-02-19T00:10:07;14.10;;;5.80;;
19965;SDS011;10144;50.874;4.762;2023-02-19T00:15:56;13.80;;;6.27;;
19965;SDS011;10144;50.874;4.762;2023-02-19T00:21:43;15.30;;;5.90;;
19965;SDS011;10144;50.874;4.762;2023-02-19T00:27:32;17.43;;;6.40;;
19965;SDS011;10144;50.874;4.762;2023-02-19T00:33:20;15.60;;;6.13;;
19965;SDS011;10144;50.874;4.762;2023-02-19T00:39:09;16.83;;;6.80;;
19965;SDS011;10144;50.874;4.762;2023-02-19T00:45:00;22.00;;;7.70;;
19965;SDS011;10144;50.874;4.762;2023-02-19T00:50:48;25.67;;;9.20;;
19965;SDS011;10144;50.874;4.762;2023-02-19T00:56:36;21.30;;;8.43;;
19965;SDS011;10144;50.874;4.762;2023-02-19T01:02:24;25.73;;;8.73;;
19965;SDS011;10144;50.874;4.762;2023-02-19T01:08:13;24.50;;;9.17;;
19965;SDS011;10144;50.874;4.762;2023-02-19T01:14:01;19.87;;;7.97;;
19965;SDS011;10144;50.874;4.762;2023-02-19T01:19:51;25.63;;;8.17;;
19965;SDS011;10144;50.874;4.762;2023-02-19T01:25:40;22.60;;;8.10;;
19965;SDS011;10144;50.874;4.762;2023-02-19T01:31:29;21.10;;;7.63;;
19965;SDS011;10144;50.874;4.762;2023-02-19T01:37:17;23.67;;;7.20;;
19965;SDS011;10144;50.874;4.762;2023-02-19T01:43:10;26.07;;;7.83;;
19965;SDS011;10144;50.874;4.762;2023-02-19T01:49:03;17.20;;;6.87;;
19965;SDS011;10144;50.874;4.762;2023-02-19T01:54:56;22.50;;;7.53;;
19965;SDS011;10144;50.874;4.762;2023-02-19T02:00:46;18.27;;;7.27;;
19965;SDS011;10144;50.874;4.762;2023-02-19T02:06:36;23.60;;;7.57;;
19965;SDS011;10144;50.874;4.762;2023-02-19T02:12:33;23.87;;;7.63;;
19965;SDS011;10144;50.874;4.762;2023-02-19T02:18:27;22.60;;;6.80;;
19965;SDS011;10144;50.874;4.762;2023-02-19T02:37:56;11.80;;;4.83;;
19965;SDS011;10144;50.874;4.762;2023-02-19T02:43:50;18.83;;;4.50;;
19965;SDS011;10144;50.874;4.762;2023-02-19T02:49:40;20.53;;;4.37;;
19965;SDS011;10144;50.874;4.762;2023-02-19T02:55:50;19.90;;;4.30;;
19965;SDS011;10144;50.874;4.762;2023-02-19T03:01:42;19.10;;;4.20;;
19965;SDS011;10144;50.874;4.762;2023-02-19T03:13:39;13.23;;;3.83;;
19965;SDS011;10144;50.874;4.762;2023-02-19T03:19:49;16.03;;;3.80;;
19965;SDS011;10144;50.874;4.762;2023-02-19T03:25:44;11.50;;;2.77;;
19965;SDS011;10144;50.874;4.762;2023-02-19T03:38:38;19.30;;;3.40;;
19965;SDS011;10144;50.874;4.762;2023-02-19T04:03:10;21.87;;;3.03;;
19965;SDS011;10144;50.874;4.762;2023-02-19T04:12:38;16.47;;;2.50;;
19965;SDS011;10144;50.874;4.762;2023-02-19T04:18:31;16.17;;;2.50;;
19965;SDS011;10144;50.874;4.762;2023-02-19T04:24:30;13.40;;;2.30;;
19965;SDS011;10144;50.874;4.762;2023-02-19T04:30:22;17.93;;;3.33;;
19965;SDS011;10144;50.874;4.762;2023-02-19T04:36:11;11.40;;;2.33;;
19965;SDS011;10144;50.874;4.762;2023-02-19T04:41:59;22.70;;;3.57;;
19965;SDS011;10144;50.874;4.762;2023-02-19T04:47:47;15.00;;;2.90;;
19965;SDS011;10144;50.874;4.762;2023-02-19T04:53:35;16.00;;;2.73;;
19965;SDS011;10144;50.874;4.762;2023-02-19T04:59:23;13.83;;;2.40;;
19965;SDS011;10144;50.874;4.762;2023-02-19T05:05:11;20.80;;;2.77;;
19965;SDS011;10144;50.874;4.762;2023-02-19T05:11:00;15.83;;;2.37;;
19965;SDS011;10144;50.874;4.762;2023-02-19T05:16:49;20.67;;;2.87;;
19965;SDS011;10144;50.874;4.762;2023-02-19T05:22:37;22.37;;;3.30;;
19965;SDS011;10144;50.874;4.762;2023-02-19T05:28:25;13.77;;;2.63;;
19965;SDS011;10144;50.874;4.762;2023-02-19T05:34:16;18.57;;;2.80;;
19965;SDS011;10144;50.874;4.762;2023-02-19T05:40:04;17.73;;;2.50;;
19965;SDS011;10144;50.874;4.762;2023-02-19T05:45:52;14.33;;;2.70;;
19965;SDS011;10144;50.874;4.762;2023-02-19T05:51:45;18.10;;;2.87;;
19965;SDS011;10144;50.874;4.762;2023-02-19T05:57:40;15.60;;;2.77;;
19965;SDS011;10144;50.874;4.762;2023-02-19T06:03:28;25.13;;;3.20;;
19965;SDS011;10144;50.874;4.762;2023-02-19T06:09:16;15.67;;;2.60;;
19965;SDS011;10144;50.874;4.762;2023-02-19T06:15:04;21.47;;;2.67;;
19965;SDS011;10144;50.874;4.762;2023-02-19T06:20:52;16.33;;;3.13;;
19965;SDS011;10144;50.874;4.762;2023-02-19T06:26:40;19.63;;;2.50;;
19965;SDS011;10144;50.874;4.762;2023-02-19T06:32:28;19.20;;;2.80;;
19965;SDS011;10144;50.874;4.762;2023-02-19T06:38:16;16.73;;;2.73;;
19965;SDS011;10144;50.874;4.762;2023-02-19T06:44:03;18.47;;;2.63;;
19965;SDS011;10144;50.874;4.762;2023-02-19T06:49:51;24.13;;;3.40;;
19965;SDS011;10144;50.874;4.762;2023-02-19T06:55:39;16.77;;;2.70;;
19965;SDS011;10144;50.874;4.762;2023-02-19T07:01:28;13.80;;;2.53;;
19965;SDS011;10144;50.874;4.762;2023-02-19T07:07:16;19.00;;;3.30;;
19965;SDS011;10144;50.874;4.762;2023-02-19T07:13:04;16.70;;;2.67;;
19965;SDS011;10144;50.874;4.762;2023-02-19T07:30:00;16.03;;;2.30;;
19965;SDS011;10144;50.874;4.762;2023-02-19T07:35:49;16.60;;;2.80;;
19965;SDS011;10144;50.874;4.762;2023-02-19T07:41:37;14.60;;;2.40;;
19965;SDS011;10144;50.874;4.762;2023-02-19T07:47:25;12.07;;;2.47;;
19965;SDS011;10144;50.874;4.762;2023-02-19T07:53:15;18.83;;;2.53;;
19965;SDS011;10144;50.874;4.762;2023-02-19T07:55:42;15.13;;;2.67;;
19965;SDS011;10144;50.874;4.762;2023-02-19T08:01:30;17.37;;;2.50;;
19965;SDS011;10144;50.874;4.762;2023-02-19T08:07:51;16.97;;;2.97;;
19965;SDS011;10144;50.874;4.762;2023-02-19T08:10:17;12.83;;;2.50;;
19965;SDS011;10144;50.874;4.762;2023-02-19T08:16:24;13.90;;;2.73;;
19965;SDS011;10144;50.874;4.762;2023-02-19T08:22:12;18.60;;;2.67;;
19965;SDS011;10144;50.874;4.762;2023-02-19T08:28:02;14.83;;;2.70;;
19965;SDS011;10144;50.874;4.762;2023-02-19T08:33:51;15.30;;;2.57;;
19965;SDS011;10144;50.874;4.762;2023-02-19T08:50:01;14.57;;;2.93;;
19965;SDS011;10144;50.874;4.762;2023-02-19T09:03:51;15.47;;;2.57;;
19965;SDS011;10144;50.874;4.762;2023-02-19T09:09:39;19.13;;;2.60;;
19965;SDS011;10144;50.874;4.762;2023-02-19T09:15:31;12.23;;;2.90;;
19965;SDS011;10144;50.874;4.762;2023-02-19T09:21:19;12.73;;;2.87;;
19965;SDS011;10144;50.874;4.762;2023-02-19T09:27:08;18.80;;;2.67;;
19965;SDS011;10144;50.874;4.762;2023-02-19T09:33:03;16.27;;;3.50;;
19965;SDS011;10144;50.874;4.762;2023-02-19T09:39:03;15.17;;;2.83;;
19965;SDS011;10144;50.874;4.762;2023-02-19T09:44:54;17.93;;;3.10;;
19965;SDS011;10144;50.874;4.762;2023-02-19T09:50:47;14.67;;;3.13;;
19965;SDS011;10144;50.874;4.762;2023-02-19T09:56:36;19.07;;;3.10;;
19965;SDS011;10144;50.874;4.762;2023-02-19T09:59:02;13.10;;;3.35;;
19965;SDS011;10144;50.874;4.762;2023-02-19T10:04:52;13.00;;;2.78;;
19965;SDS011;10144;50.874;4.762;2023-02-19T10:10:40;13.48;;;3.17;;
19965;SDS011;10144;50.874;4.762;2023-02-19T10:16:30;12.18;;;3.40;;
19965;SDS011;10144;50.874;4.762;2023-02-19T10:22:21;11.93;;;3.10;;
19965;SDS011;10144;50.874;4.762;2023-02-19T10:37:58;14.35;;;3.13;;
19965;SDS011;10144;50.874;4.762;2023-02-19T10:49:44;12.52;;;3.13;;
19965;SDS011;10144;50.874;4.762;2023-02-19T10:55:35;13.77;;;3.35;;
19965;SDS011;10144;50.874;4.762;2023-02-19T11:01:26;15.75;;;4.20;;
19965;SDS011;10144;50.874;4.762;2023-02-19T11:07:17;14.03;;;4.53;;
19965;SDS011;10144;50.874;4.762;2023-02-19T11:13:12;20.77;;;4.57;;
19965;SDS011;10144;50.874;4.762;2023-02-19T11:19:02;15.60;;;3.97;;
19965;SDS011;10144;50.874;4.762;2023-02-19T11:24:50;20.63;;;3.60;;
19965;SDS011;10144;50.874;4.762;2023-02-19T11:30:40;17.65;;;3.65;;
19965;SDS011;10144;50.874;4.762;2023-02-19T11:36:33;15.53;;;3.70;;
19965;SDS011;10144;50.874;4.762;2023-02-19T11:42:26;14.80;;;4.30;;
19965;SDS011;10144;50.874;4.762;2023-02-19T11:48:28;15.93;;;4.77;;
19965;SDS011;10144;50.874;4.762;2023-02-19T12:00:44;6.77;;;3.40;;
19965;SDS011;10144;50.874;4.762;2023-02-19T12:42:31;16.77;;;3.70;;
19965;SDS011;10144;50.874;4.762;2023-02-19T13:00:52;10.97;;;3.30;;
19965;SDS011;10144;50.874;4.762;2023-02-19T13:06:50;13.97;;;3.60;;
19965;SDS011;10144;50.874;4.762;2023-02-19T13:34:59;15.43;;;4.53;;
19965;SDS011;10144;50.874;4.762;2023-02-19T13:41:18;10.87;;;3.83;;
19965;SDS011;10144;50.874;4.762;2023-02-19T14:24:47;13.47;;;4.10;;
19965;SDS011;10144;50.874;4.762;2023-02-19T15:45:58;5.10;;;2.63;;
19965;SDS011;10144;50.874;4.762;2023-02-19T15:59:06;5.77;;;3.17;;
19965;SDS011;10144;50.874;4.762;2023-02-19T17:05:31;7.77;;;3.40;;
19965;SDS011;10144;50.874;4.762;2023-02-19T17:08:46;9.07;;;3.03;;
19965;SDS011;10144;50.874;4.762;2023-02-19T17:14:34;13.10;;;3.43;;
19965;SDS011;10144;50.874;4.762;2023-02-19T17:20:25;12.10;;;3.83;;
19965;SDS011;10144;50.874;4.762;2023-02-19T17:26:22;10.87;;;3.80;;
19965;SDS011;10144;50.874;4.762;2023-02-19T17:32:11;9.47;;;4.00;;
19965;SDS011;10144;50.874;4.762;2023-02-19T17:38:01;11.50;;;5.50;;
19965;SDS011;10144;50.874;4.762;2023-02-19T17:40:33;9.73;;;4.43;;
19965;SDS011;10144;50.874;4.762;2023-02-19T17:46:22;14.07;;;4.80;;
19965;SDS011;10144;50.874;4.762;2023-02-19T17:52:12;12.30;;;4.50;;
19965;SDS011;10144;50.874;4.762;2023-02-19T17:58:04;12.43;;;4.33;;
19965;SDS011;10144;50.874;4.762;2023-02-19T18:03:52;12.83;;;4.97;;
19965;SDS011;10144;50.874;4.762;2023-02-19T18:09:40;19.03;;;5.40;;
19965;SDS011;10144;50.874;4.762;2023-02-19T18:15:28;12.00;;;4.90;;
19965;SDS011;10144;50.874;4.762;2023-02-19T18:21:17;14.10;;;5.13;;
19965;SDS011;10144;50.874;4.762;2023-02-19T18:27:05;12.83;;;5.10;;
19965;SDS011;10144;50.874;4.762;2023-02-19T18:33:06;17.20;;;5.70;;
19965;SDS011;10144;50.874;4.762;2023-02-19T18:38:57;14.57;;;5.80;;
19965;SDS011;10144;50.874;4.762;2023-02-19T18:41:32;13.50;;;6.27;;
19965;SDS011;10144;50.874;4.762;2023-02-19T18:47:21;17.90;;;6.90;;
19965;SDS011;10144;50.874;4.762;2023-02-19T18:53:11;16.97;;;6.63;;
19965;SDS011;10144;50.874;4.762;2023-02-19T18:59:00;23.30;;;6.97;;
19965;SDS011;10144;50.874;4.762;2023-02-19T19:04:51;19.13;;;8.37;;
19965;SDS011;10144;50.874;4.762;2023-02-19T19:10:42;20.93;;;10.30;;
19965;SDS011;10144;50.874;4.762;2023-02-19T19:26:53;17.63;;;7.67;;
19965;SDS011;10144;50.874;4.762;2023-02-19T19:32:47;22.33;;;7.07;;
19965;SDS011;10144;50.874;4.762;2023-02-19T19:38:38;21.07;;;7.17;;
19965;SDS011;10144;50.874;4.762;2023-02-19T19:47:54;21.13;;;7.73;;
19965;SDS011;10144;50.874;4.762;2023-02-19T19:56:47;31.10;;;9.00;;
19965;SDS011;10144;50.874;4.762;2023-02-19T20:02:37;26.67;;;12.23;;
19965;SDS011;10144;50.874;4.762;2023-02-19T20:29:01;34.63;;;11.10;;
19965;SDS011;10144;50.874;4.762;2023-02-19T20:48:05;24.00;;;9.80;;
19965;SDS011;10144;50.874;4.762;2023-02-19T20:53:53;24.00;;;9.73;;
19965;SDS011;10144;50.874;4.762;2023-02-19T21:02:21;23.93;;;10.40;;
19965;SDS011;10144;50.874;4.762;2023-02-19T21:10:49;24.20;;;9.60;;
19965;SDS011;10144;50.874;4.762;2023-02-19T21:16:38;31.73;;;10.80;;
19965;SDS011;10144;50.874;4.762;2023-02-19T21:22:27;25.23;;;10.63;;
19965;SDS011;10144;50.874;4.762;2023-02-19T22:00:07;30.67;;;11.70;;
